sensor_id;sensor_type;location;lat;lon;timestamp;temperature;humidity
16863;DHT22;52193;48.216;-1.698;2023-03-21T00:01:17;14.60;97.90
16863;DHT22;52193;48.216;-1.698;2023-03-21T00:03:46;14.60;97.80
16863;DHT22;52193;48.216;-1.698;2023-03-21T00:06:14;14.50;97.90
16863;DHT22;52193;48.216;-1.698;2023-03-21T00:08:41;14.60;98.20
16863;DHT22;52193;48.216;-1.698;2023-03-21T00:11:10;14.60;97.90
16863;DHT22;52193;48.216;-1.698;2023-03-21T00:13:38;14.60;97.90
16863;DHT22;52193;48.216;-1.698;2023-03-21T00:16:08;14.60;98.00
16863;DHT22;52193;48.216;-1.698;2023-03-21T00:18:40;14.60;98.00
16863;DHT22;52193;48.216;-1.698;2023-03-21T00:21:11;14.60;97.90
16863;DHT22;52193;48.216;-1.698;2023-03-21T00:23:40;14.60;98.00
16863;DHT22;52193;48.216;-1.698;2023-03-21T00:26:08;14.50;98.30
16863;DHT22;52193;48.216;-1.698;2023-03-21T00:28:35;14.40;98.20
16863;DHT22;52193;48.216;-1.698;2023-03-21T00:31:03;14.40;98.30
16863;DHT22;52193;48.216;-1.698;2023-03-21T00:33:31;14.40;98.30
16863;DHT22;52193;48.216;-1.698;2023-03-21T00:35:59;14.40;98.20
16863;DHT22;52193;48.216;-1.698;2023-03-21T00:38:27;14.40;98.20
16863;DHT22;52193;48.216;-1.698;2023-03-21T00:40:55;14.50;98.10
16863;DHT22;52193;48.216;-1.698;2023-03-21T00:43:22;14.40;98.20
16863;DHT22;52193;48.216;-1.698;2023-03-21T00:45:55;14.40;98.20
16863;DHT22;52193;48.216;-1.698;2023-03-21T00:48:22;14.40;98.20
16863;DHT22;52193;48.216;-1.698;2023-03-21T00:50:50;14.40;98.30
16863;DHT22;52193;48.216;-1.698;2023-03-21T00:53:19;14.40;98.30
16863;DHT22;52193;48.216;-1.698;2023-03-21T00:55:47;14.40;98.30
16863;DHT22;52193;48.216;-1.698;2023-03-21T00:58:14;14.40;98.30
16863;DHT22;52193;48.216;-1.698;2023-03-21T01:00:42;14.40;98.30
16863;DHT22;52193;48.216;-1.698;2023-03-21T01:03:11;14.40;98.40
16863;DHT22;52193;48.216;-1.698;2023-03-21T01:05:41;14.40;98.40
16863;DHT22;52193;48.216;-1.698;2023-03-21T01:08:26;14.30;98.40
16863;DHT22;52193;48.216;-1.698;2023-03-21T01:10:55;14.20;98.50
16863;DHT22;52193;48.216;-1.698;2023-03-21T01:13:24;14.20;98.60
16863;DHT22;52193;48.216;-1.698;2023-03-21T01:15:52;14.20;98.60
16863;DHT22;52193;48.216;-1.698;2023-03-21T01:18:21;14.20;98.70
16863;DHT22;52193;48.216;-1.698;2023-03-21T01:20:49;14.20;98.80
16863;DHT22;52193;48.216;-1.698;2023-03-21T01:23:16;14.10;98.90
16863;DHT22;52193;48.216;-1.698;2023-03-21T01:25:43;14.20;99.00
16863;DHT22;52193;48.216;-1.698;2023-03-21T01:28:14;14.20;98.90
16863;DHT22;52193;48.216;-1.698;2023-03-21T01:30:44;14.10;99.10
16863;DHT22;52193;48.216;-1.698;2023-03-21T01:33:11;14.00;99.10
16863;DHT22;52193;48.216;-1.698;2023-03-21T01:35:38;14.10;99.20
16863;DHT22;52193;48.216;-1.698;2023-03-21T01:38:05;14.00;99.20
16863;DHT22;52193;48.216;-1.698;2023-03-21T01:40:32;14.00;99.30
16863;DHT22;52193;48.216;-1.698;2023-03-21T01:42:59;13.90;99.40
16863;DHT22;52193;48.216;-1.698;2023-03-21T01:48:32;14.00;99.50
16863;DHT22;52193;48.216;-1.698;2023-03-21T01:50:59;14.00;99.50
16863;DHT22;52193;48.216;-1.698;2023-03-21T01:53:30;13.90;99.50
16863;DHT22;52193;48.216;-1.698;2023-03-21T01:56:02;13.90;99.70
16863;DHT22;52193;48.216;-1.698;2023-03-21T01:58:29;13.80;99.80
16863;DHT22;52193;48.216;-1.698;2023-03-21T02:00:56;13.90;99.90
16863;DHT22;52193;48.216;-1.698;2023-03-21T02:03:24;13.90;99.90
16863;DHT22;52193;48.216;-1.698;2023-03-21T02:05:58;13.90;99.90
16863;DHT22;52193;48.216;-1.698;2023-03-21T02:08:28;14.00;99.90
16863;DHT22;52193;48.216;-1.698;2023-03-21T02:10:55;13.90;99.90
16863;DHT22;52193;48.216;-1.698;2023-03-21T02:13:22;13.90;99.90
16863;DHT22;52193;48.216;-1.698;2023-03-21T02:15:56;13.90;99.90
16863;DHT22;52193;48.216;-1.698;2023-03-21T02:18:32;13.90;99.90
16863;DHT22;52193;48.216;-1.698;2023-03-21T02:27:15;14.00;99.90
16863;DHT22;52193;48.216;-1.698;2023-03-21T02:30:19;13.90;99.90
16863;DHT22;52193;48.216;-1.698;2023-03-21T02:35:52;13.80;99.90
16863;DHT22;52193;48.216;-1.698;2023-03-21T02:38:25;13.80;99.90
16863;DHT22;52193;48.216;-1.698;2023-03-21T02:41:01;13.80;99.90
16863;DHT22;52193;48.216;-1.698;2023-03-21T02:43:32;13.80;99.90
16863;DHT22;52193;48.216;-1.698;2023-03-21T02:46:06;13.80;99.90
16863;DHT22;52193;48.216;-1.698;2023-03-21T02:48:36;13.80;99.90
16863;DHT22;52193;48.216;-1.698;2023-03-21T02:51:07;13.80;99.90
16863;DHT22;52193;48.216;-1.698;2023-03-21T02:53:39;13.80;99.90
16863;DHT22;52193;48.216;-1.698;2023-03-21T02:56:08;13.80;99.90
16863;DHT22;52193;48.216;-1.698;2023-03-21T02:58:37;13.80;99.90
16863;DHT22;52193;48.216;-1.698;2023-03-21T03:01:05;13.70;99.90
16863;DHT22;52193;48.216;-1.698;2023-03-21T03:03:34;13.80;99.90
16863;DHT22;52193;48.216;-1.698;2023-03-21T03:06:08;13.80;99.90
16863;DHT22;52193;48.216;-1.698;2023-03-21T03:08:49;13.90;99.90
16863;DHT22;52193;48.216;-1.698;2023-03-21T03:11:23;13.90;99.90
16863;DHT22;52193;48.216;-1.698;2023-03-21T03:14:13;13.80;99.90
16863;DHT22;52193;48.216;-1.698;2023-03-21T03:16:50;13.80;99.90
16863;DHT22;52193;48.216;-1.698;2023-03-21T03:19:25;13.80;99.90
16863;DHT22;52193;48.216;-1.698;2023-03-21T03:21:57;13.90;99.90
16863;DHT22;52193;48.216;-1.698;2023-03-21T03:24:30;13.90;99.90
16863;DHT22;52193;48.216;-1.698;2023-03-21T03:26:59;13.90;99.90
16863;DHT22;52193;48.216;-1.698;2023-03-21T03:29:29;13.90;99.90
16863;DHT22;52193;48.216;-1.698;2023-03-21T03:31:59;13.90;99.90
16863;DHT22;52193;48.216;-1.698;2023-03-21T03:34:30;13.90;99.90
16863;DHT22;52193;48.216;-1.698;2023-03-21T03:37:01;13.90;99.90
16863;DHT22;52193;48.216;-1.698;2023-03-21T03:39:34;13.90;99.90
16863;DHT22;52193;48.216;-1.698;2023-03-21T03:42:04;13.90;99.90
16863;DHT22;52193;48.216;-1.698;2023-03-21T03:44:34;13.90;99.90
16863;DHT22;52193;48.216;-1.698;2023-03-21T03:47:04;13.90;99.90
16863;DHT22;52193;48.216;-1.698;2023-03-21T03:49:35;14.00;99.90
16863;DHT22;52193;48.216;-1.698;2023-03-21T03:52:08;14.00;99.90
16863;DHT22;52193;48.216;-1.698;2023-03-21T03:54:39;14.00;99.90
16863;DHT22;52193;48.216;-1.698;2023-03-21T03:57:07;14.00;99.90
16863;DHT22;52193;48.216;-1.698;2023-03-21T03:59:37;14.00;99.90
16863;DHT22;52193;48.216;-1.698;2023-03-21T04:02:05;14.00;99.90
16863;DHT22;52193;48.216;-1.698;2023-03-21T04:04:31;14.00;99.90
16863;DHT22;52193;48.216;-1.698;2023-03-21T04:06:58;14.00;99.90
16863;DHT22;52193;48.216;-1.698;2023-03-21T04:09:28;13.90;99.90
16863;DHT22;52193;48.216;-1.698;2023-03-21T04:11:57;13.90;99.90
16863;DHT22;52193;48.216;-1.698;2023-03-21T04:14:24;13.90;99.90
16863;DHT22;52193;48.216;-1.698;2023-03-21T04:16:51;14.10;99.90
16863;DHT22;52193;48.216;-1.698;2023-03-21T04:19:19;14.00;99.90
16863;DHT22;52193;48.216;-1.698;2023-03-21T04:21:46;14.00;99.90
16863;DHT22;52193;48.216;-1.698;2023-03-21T04:24:13;14.00;99.90
16863;DHT22;52193;48.216;-1.698;2023-03-21T04:26:40;14.10;99.90
16863;DHT22;52193;48.216;-1.698;2023-03-21T04:29:09;14.00;99.90
16863;DHT22;52193;48.216;-1.698;2023-03-21T04:31:35;14.00;99.90
16863;DHT22;52193;48.216;-1.698;2023-03-21T04:34:06;14.00;99.90
16863;DHT22;52193;48.216;-1.698;2023-03-21T04:36:34;14.00;99.90
16863;DHT22;52193;48.216;-1.698;2023-03-21T04:39:07;14.00;99.90
16863;DHT22;52193;48.216;-1.698;2023-03-21T04:41:37;14.00;99.90
16863;DHT22;52193;48.216;-1.698;2023-03-21T04:44:05;14.10;99.90
16863;DHT22;52193;48.216;-1.698;2023-03-21T04:46:33;14.20;99.90
16863;DHT22;52193;48.216;-1.698;2023-03-21T04:49:01;14.20;99.90
16863;DHT22;52193;48.216;-1.698;2023-03-21T04:51:28;14.20;99.90
16863;DHT22;52193;48.216;-1.698;2023-03-21T04:53:55;14.20;99.90
16863;DHT22;52193;48.216;-1.698;2023-03-21T04:56:23;14.20;99.90
16863;DHT22;52193;48.216;-1.698;2023-03-21T04:58:57;14.20;99.90
16863;DHT22;52193;48.216;-1.698;2023-03-21T05:01:24;14.20;99.90
16863;DHT22;52193;48.216;-1.698;2023-03-21T05:03:56;14.20;99.90
16863;DHT22;52193;48.216;-1.698;2023-03-21T05:06:23;14.20;99.90
16863;DHT22;52193;48.216;-1.698;2023-03-21T05:08:50;14.30;99.90
16863;DHT22;52193;48.216;-1.698;2023-03-21T05:11:17;14.30;99.90
16863;DHT22;52193;48.216;-1.698;2023-03-21T05:13:44;14.30;99.90
16863;DHT22;52193;48.216;-1.698;2023-03-21T05:16:11;14.30;99.90
16863;DHT22;52193;48.216;-1.698;2023-03-21T05:18:38;14.30;99.90
16863;DHT22;52193;48.216;-1.698;2023-03-21T05:21:07;14.30;99.90
16863;DHT22;52193;48.216;-1.698;2023-03-21T05:23:35;14.30;99.90
16863;DHT22;52193;48.216;-1.698;2023-03-21T05:26:04;14.40;99.90
16863;DHT22;52193;48.216;-1.698;2023-03-21T05:28:31;14.40;99.90
16863;DHT22;52193;48.216;-1.698;2023-03-21T05:31:01;14.40;99.90
16863;DHT22;52193;48.216;-1.698;2023-03-21T05:33:29;14.40;99.90
16863;DHT22;52193;48.216;-1.698;2023-03-21T05:35:56;14.50;99.90
16863;DHT22;52193;48.216;-1.698;2023-03-21T05:38:25;14.50;99.90
16863;DHT22;52193;48.216;-1.698;2023-03-21T05:40:53;14.50;99.90
16863;DHT22;52193;48.216;-1.698;2023-03-21T05:43:20;14.50;99.90
16863;DHT22;52193;48.216;-1.698;2023-03-21T05:45:47;14.50;99.90
16863;DHT22;52193;48.216;-1.698;2023-03-21T05:48:13;14.50;99.90
16863;DHT22;52193;48.216;-1.698;2023-03-21T05:50:41;14.50;99.90
16863;DHT22;52193;48.216;-1.698;2023-03-21T05:53:08;14.60;99.90
16863;DHT22;52193;48.216;-1.698;2023-03-21T05:55:36;14.50;99.90
16863;DHT22;52193;48.216;-1.698;2023-03-21T05:58:04;14.50;99.90
16863;DHT22;52193;48.216;-1.698;2023-03-21T06:00:31;14.50;99.90
16863;DHT22;52193;48.216;-1.698;2023-03-21T06:02:58;14.50;99.90
16863;DHT22;52193;48.216;-1.698;2023-03-21T06:05:25;14.40;99.90
16863;DHT22;52193;48.216;-1.698;2023-03-21T06:07:52;14.50;99.90
16863;DHT22;52193;48.216;-1.698;2023-03-21T06:10:19;14.40;99.90
16863;DHT22;52193;48.216;-1.698;2023-03-21T06:12:47;14.40;99.90
16863;DHT22;52193;48.216;-1.698;2023-03-21T06:15:14;14.40;99.90
16863;DHT22;52193;48.216;-1.698;2023-03-21T06:17:41;14.40;99.90
16863;DHT22;52193;48.216;-1.698;2023-03-21T06:20:10;14.40;99.90
16863;DHT22;52193;48.216;-1.698;2023-03-21T06:22:37;14.40;99.90
16863;DHT22;52193;48.216;-1.698;2023-03-21T06:25:05;14.30;99.90
16863;DHT22;52193;48.216;-1.698;2023-03-21T06:27:33;14.30;99.90
16863;DHT22;52193;48.216;-1.698;2023-03-21T06:30:02;14.30;99.90
16863;DHT22;52193;48.216;-1.698;2023-03-21T06:32:29;14.30;99.90
16863;DHT22;52193;48.216;-1.698;2023-03-21T06:34:56;14.40;99.90
16863;DHT22;52193;48.216;-1.698;2023-03-21T06:37:23;14.30;99.90
16863;DHT22;52193;48.216;-1.698;2023-03-21T06:39:51;14.30;99.90
16863;DHT22;52193;48.216;-1.698;2023-03-21T06:42:18;14.30;99.90
16863;DHT22;52193;48.216;-1.698;2023-03-21T06:44:45;14.40;99.90
16863;DHT22;52193;48.216;-1.698;2023-03-21T06:47:14;14.30;99.90
16863;DHT22;52193;48.216;-1.698;2023-03-21T06:49:41;14.30;99.90
16863;DHT22;52193;48.216;-1.698;2023-03-21T06:52:09;14.40;99.90
16863;DHT22;52193;48.216;-1.698;2023-03-21T06:54:36;14.40;99.90
16863;DHT22;52193;48.216;-1.698;2023-03-21T06:57:03;14.50;99.90
16863;DHT22;52193;48.216;-1.698;2023-03-21T06:59:30;14.50;99.90
16863;DHT22;52193;48.216;-1.698;2023-03-21T07:01:57;14.60;99.90
16863;DHT22;52193;48.216;-1.698;2023-03-21T07:04:25;14.60;99.90
16863;DHT22;52193;48.216;-1.698;2023-03-21T07:06:52;14.60;99.90
16863;DHT22;52193;48.216;-1.698;2023-03-21T07:09:20;14.70;99.90
16863;DHT22;52193;48.216;-1.698;2023-03-21T07:11:49;14.70;99.90
16863;DHT22;52193;48.216;-1.698;2023-03-21T07:14:18;14.70;99.90
16863;DHT22;52193;48.216;-1.698;2023-03-21T07:16:45;14.80;99.90
16863;DHT22;52193;48.216;-1.698;2023-03-21T07:19:12;14.80;99.90
16863;DHT22;52193;48.216;-1.698;2023-03-21T07:21:41;14.80;99.90
16863;DHT22;52193;48.216;-1.698;2023-03-21T07:24:08;14.80;99.90
16863;DHT22;52193;48.216;-1.698;2023-03-21T07:26:35;14.80;99.90
16863;DHT22;52193;48.216;-1.698;2023-03-21T07:29:02;14.80;99.90
16863;DHT22;52193;48.216;-1.698;2023-03-21T07:31:29;14.90;99.90
16863;DHT22;52193;48.216;-1.698;2023-03-21T07:33:56;15.00;99.90
16863;DHT22;52193;48.216;-1.698;2023-03-21T07:36:23;15.10;99.90
16863;DHT22;52193;48.216;-1.698;2023-03-21T07:38:52;15.00;99.90
16863;DHT22;52193;48.216;-1.698;2023-03-21T07:41:19;15.10;99.90
16863;DHT22;52193;48.216;-1.698;2023-03-21T07:43:46;15.00;99.90
16863;DHT22;52193;48.216;-1.698;2023-03-21T07:46:13;15.20;99.90
16863;DHT22;52193;48.216;-1.698;2023-03-21T07:48:39;15.20;99.90
16863;DHT22;52193;48.216;-1.698;2023-03-21T07:51:06;15.30;99.90
16863;DHT22;52193;48.216;-1.698;2023-03-21T07:53:34;15.40;99.90
16863;DHT22;52193;48.216;-1.698;2023-03-21T07:56:02;15.40;99.90
16863;DHT22;52193;48.216;-1.698;2023-03-21T07:58:30;15.50;99.90
16863;DHT22;52193;48.216;-1.698;2023-03-21T08:00:59;15.60;99.90
16863;DHT22;52193;48.216;-1.698;2023-03-21T08:03:26;15.60;99.90
16863;DHT22;52193;48.216;-1.698;2023-03-21T08:05:54;15.60;99.90
16863;DHT22;52193;48.216;-1.698;2023-03-21T08:08:21;15.70;99.90
16863;DHT22;52193;48.216;-1.698;2023-03-21T08:10:48;15.60;99.90
16863;DHT22;52193;48.216;-1.698;2023-03-21T08:13:16;15.70;99.90
16863;DHT22;52193;48.216;-1.698;2023-03-21T08:15:43;15.60;99.90
16863;DHT22;52193;48.216;-1.698;2023-03-21T08:18:10;15.70;99.90
16863;DHT22;52193;48.216;-1.698;2023-03-21T08:20:38;15.70;99.90
16863;DHT22;52193;48.216;-1.698;2023-03-21T08:23:05;15.70;99.90
16863;DHT22;52193;48.216;-1.698;2023-03-21T08:25:32;15.80;99.90
16863;DHT22;52193;48.216;-1.698;2023-03-21T08:28:00;15.80;99.90
16863;DHT22;52193;48.216;-1.698;2023-03-21T08:30:28;15.80;99.90
16863;DHT22;52193;48.216;-1.698;2023-03-21T08:32:56;15.80;99.90
16863;DHT22;52193;48.216;-1.698;2023-03-21T08:35:23;15.90;99.90
16863;DHT22;52193;48.216;-1.698;2023-03-21T08:37:50;16.00;99.90
16863;DHT22;52193;48.216;-1.698;2023-03-21T08:40:18;15.90;99.90
16863;DHT22;52193;48.216;-1.698;2023-03-21T08:42:45;16.00;99.90
16863;DHT22;52193;48.216;-1.698;2023-03-21T08:45:14;16.00;99.90
16863;DHT22;52193;48.216;-1.698;2023-03-21T08:47:42;16.00;99.90
16863;DHT22;52193;48.216;-1.698;2023-03-21T08:50:12;16.00;99.90
16863;DHT22;52193;48.216;-1.698;2023-03-21T08:52:40;16.00;99.90
16863;DHT22;52193;48.216;-1.698;2023-03-21T08:55:08;16.10;99.90
16863;DHT22;52193;48.216;-1.698;2023-03-21T08:57:35;16.20;99.90
16863;DHT22;52193;48.216;-1.698;2023-03-21T09:00:04;16.30;99.90
16863;DHT22;52193;48.216;-1.698;2023-03-21T09:02:36;16.30;99.90
16863;DHT22;52193;48.216;-1.698;2023-03-21T09:05:05;16.40;99.90
16863;DHT22;52193;48.216;-1.698;2023-03-21T09:07:33;16.50;99.90
16863;DHT22;52193;48.216;-1.698;2023-03-21T09:10:01;16.50;99.90
16863;DHT22;52193;48.216;-1.698;2023-03-21T09:12:27;16.60;99.90
16863;DHT22;52193;48.216;-1.698;2023-03-21T09:14:54;16.70;99.90
16863;DHT22;52193;48.216;-1.698;2023-03-21T09:17:21;16.80;99.90
16863;DHT22;52193;48.216;-1.698;2023-03-21T09:19:48;16.80;99.90
16863;DHT22;52193;48.216;-1.698;2023-03-21T09:22:17;16.80;99.90
16863;DHT22;52193;48.216;-1.698;2023-03-21T09:24:46;16.90;99.90
16863;DHT22;52193;48.216;-1.698;2023-03-21T09:27:14;16.90;99.90
16863;DHT22;52193;48.216;-1.698;2023-03-21T09:29:43;17.00;99.90
16863;DHT22;52193;48.216;-1.698;2023-03-21T09:32:10;17.10;99.90
16863;DHT22;52193;48.216;-1.698;2023-03-21T09:34:38;17.10;99.90
16863;DHT22;52193;48.216;-1.698;2023-03-21T09:37:06;17.10;99.90
16863;DHT22;52193;48.216;-1.698;2023-03-21T09:39:39;17.20;99.90
16863;DHT22;52193;48.216;-1.698;2023-03-21T09:42:16;17.10;99.90
16863;DHT22;52193;48.216;-1.698;2023-03-21T09:44:53;17.10;99.90
16863;DHT22;52193;48.216;-1.698;2023-03-21T09:47:27;17.20;99.90
16863;DHT22;52193;48.216;-1.698;2023-03-21T09:49:59;17.20;99.90
16863;DHT22;52193;48.216;-1.698;2023-03-21T09:52:31;17.30;99.90
16863;DHT22;52193;48.216;-1.698;2023-03-21T09:55:02;17.40;99.90
16863;DHT22;52193;48.216;-1.698;2023-03-21T09:57:46;17.50;99.90
16863;DHT22;52193;48.216;-1.698;2023-03-21T10:00:18;17.60;99.90
16863;DHT22;52193;48.216;-1.698;2023-03-21T10:02:50;17.60;99.90
16863;DHT22;52193;48.216;-1.698;2023-03-21T10:05:20;17.70;99.90
16863;DHT22;52193;48.216;-1.698;2023-03-21T10:07:53;17.60;99.90
16863;DHT22;52193;48.216;-1.698;2023-03-21T10:10:26;17.60;99.90
16863;DHT22;52193;48.216;-1.698;2023-03-21T10:12:55;17.60;99.90
16863;DHT22;52193;48.216;-1.698;2023-03-21T10:15:24;17.60;99.90
16863;DHT22;52193;48.216;-1.698;2023-03-21T10:17:56;17.70;99.90
16863;DHT22;52193;48.216;-1.698;2023-03-21T10:20:28;17.70;99.90
16863;DHT22;52193;48.216;-1.698;2023-03-21T10:22:57;17.60;99.90
16863;DHT22;52193;48.216;-1.698;2023-03-21T10:25:30;17.70;99.90
16863;DHT22;52193;48.216;-1.698;2023-03-21T10:27:59;17.70;99.90
16863;DHT22;52193;48.216;-1.698;2023-03-21T10:30:33;17.80;99.90
16863;DHT22;52193;48.216;-1.698;2023-03-21T10:33:02;17.90;99.90
16863;DHT22;52193;48.216;-1.698;2023-03-21T10:35:31;18.10;99.90
16863;DHT22;52193;48.216;-1.698;2023-03-21T10:38:02;18.20;99.90
16863;DHT22;52193;48.216;-1.698;2023-03-21T10:40:30;18.20;99.90
16863;DHT22;52193;48.216;-1.698;2023-03-21T10:43:16;18.10;99.90
16863;DHT22;52193;48.216;-1.698;2023-03-21T10:45:45;18.10;99.90
16863;DHT22;52193;48.216;-1.698;2023-03-21T10:48:12;18.20;99.90
16863;DHT22;52193;48.216;-1.698;2023-03-21T10:50:40;18.10;99.90
16863;DHT22;52193;48.216;-1.698;2023-03-21T10:53:16;18.10;99.80
16863;DHT22;52193;48.216;-1.698;2023-03-21T10:55:49;18.10;99.60
16863;DHT22;52193;48.216;-1.698;2023-03-21T10:58:19;18.10;99.30
16863;DHT22;52193;48.216;-1.698;2023-03-21T11:00:54;18.10;99.20
16863;DHT22;52193;48.216;-1.698;2023-03-21T11:03:26;18.00;99.20
16863;DHT22;52193;48.216;-1.698;2023-03-21T11:06:00;17.90;98.60
16863;DHT22;52193;48.216;-1.698;2023-03-21T11:08:29;17.90;98.90
16863;DHT22;52193;48.216;-1.698;2023-03-21T11:11:02;17.80;98.90
16863;DHT22;52193;48.216;-1.698;2023-03-21T11:13:33;17.80;99.00
16863;DHT22;52193;48.216;-1.698;2023-03-21T11:16:06;17.90;99.30
16863;DHT22;52193;48.216;-1.698;2023-03-21T11:18:39;17.90;98.80
16863;DHT22;52193;48.216;-1.698;2023-03-21T11:21:08;18.00;98.60
16863;DHT22;52193;48.216;-1.698;2023-03-21T11:23:38;18.00;98.60
16863;DHT22;52193;48.216;-1.698;2023-03-21T11:26:14;18.10;98.90
16863;DHT22;52193;48.216;-1.698;2023-03-21T11:28:42;18.20;98.50
16863;DHT22;52193;48.216;-1.698;2023-03-21T11:31:10;18.30;97.70
16863;DHT22;52193;48.216;-1.698;2023-03-21T11:33:40;18.30;97.50
16863;DHT22;52193;48.216;-1.698;2023-03-21T11:36:26;18.40;97.00
16863;DHT22;52193;48.216;-1.698;2023-03-21T11:38:59;18.40;96.50
16863;DHT22;52193;48.216;-1.698;2023-03-21T11:41:31;18.50;96.50
16863;DHT22;52193;48.216;-1.698;2023-03-21T11:44:00;18.60;96.60
16863;DHT22;52193;48.216;-1.698;2023-03-21T11:46:29;18.70;96.60
16863;DHT22;52193;48.216;-1.698;2023-03-21T11:48:57;18.90;96.60
16863;DHT22;52193;48.216;-1.698;2023-03-21T11:51:31;19.00;96.30
16863;DHT22;52193;48.216;-1.698;2023-03-21T11:54:05;19.00;96.10
16863;DHT22;52193;48.216;-1.698;2023-03-21T11:56:37;19.10;95.80
16863;DHT22;52193;48.216;-1.698;2023-03-21T11:59:18;19.30;96.00
16863;DHT22;52193;48.216;-1.698;2023-03-21T12:01:55;19.40;95.70
16863;DHT22;52193;48.216;-1.698;2023-03-21T12:04:38;19.70;95.70
16863;DHT22;52193;48.216;-1.698;2023-03-21T12:07:24;20.00;95.60
16863;DHT22;52193;48.216;-1.698;2023-03-21T12:10:00;20.10;95.30
16863;DHT22;52193;48.216;-1.698;2023-03-21T12:12:39;20.10;95.10
16863;DHT22;52193;48.216;-1.698;2023-03-21T12:15:13;20.10;95.10
16863;DHT22;52193;48.216;-1.698;2023-03-21T12:17:49;20.10;95.10
16863;DHT22;52193;48.216;-1.698;2023-03-21T12:20:39;20.40;95.20
16863;DHT22;52193;48.216;-1.698;2023-03-21T12:23:37;20.60;95.00
16863;DHT22;52193;48.216;-1.698;2023-03-21T12:26:13;20.90;94.60
16863;DHT22;52193;48.216;-1.698;2023-03-21T12:28:54;20.90;94.40
16863;DHT22;52193;48.216;-1.698;2023-03-21T12:31:27;20.90;94.10
16863;DHT22;52193;48.216;-1.698;2023-03-21T12:34:07;21.00;93.90
16863;DHT22;52193;48.216;-1.698;2023-03-21T12:36:50;21.00;93.60
16863;DHT22;52193;48.216;-1.698;2023-03-21T12:39:26;21.00;93.10
16863;DHT22;52193;48.216;-1.698;2023-03-21T12:42:08;21.10;92.90
16863;DHT22;52193;48.216;-1.698;2023-03-21T12:44:42;21.60;92.70
16863;DHT22;52193;48.216;-1.698;2023-03-21T12:47:13;22.00;92.10
16863;DHT22;52193;48.216;-1.698;2023-03-21T12:49:45;22.40;91.70
16863;DHT22;52193;48.216;-1.698;2023-03-21T12:52:15;22.80;91.20
16863;DHT22;52193;48.216;-1.698;2023-03-21T12:54:48;22.90;90.80
16863;DHT22;52193;48.216;-1.698;2023-03-21T12:57:18;22.80;90.40
16863;DHT22;52193;48.216;-1.698;2023-03-21T12:59:54;22.80;90.40
16863;DHT22;52193;48.216;-1.698;2023-03-21T13:02:29;22.80;90.50
16863;DHT22;52193;48.216;-1.698;2023-03-21T13:05:00;22.60;90.30
16863;DHT22;52193;48.216;-1.698;2023-03-21T13:07:34;22.70;90.40
16863;DHT22;52193;48.216;-1.698;2023-03-21T13:10:12;22.60;90.30
16863;DHT22;52193;48.216;-1.698;2023-03-21T13:12:43;22.40;90.30
16863;DHT22;52193;48.216;-1.698;2023-03-21T13:18:28;22.10;90.20
16863;DHT22;52193;48.216;-1.698;2023-03-21T13:20:59;21.90;90.50
16863;DHT22;52193;48.216;-1.698;2023-03-21T13:23:34;22.00;90.60
16863;DHT22;52193;48.216;-1.698;2023-03-21T13:26:01;22.20;90.60
16863;DHT22;52193;48.216;-1.698;2023-03-21T13:28:30;22.30;90.30
16863;DHT22;52193;48.216;-1.698;2023-03-21T13:31:17;22.20;90.20
16863;DHT22;52193;48.216;-1.698;2023-03-21T13:33:46;22.40;90.20
16863;DHT22;52193;48.216;-1.698;2023-03-21T13:36:15;22.50;90.30
16863;DHT22;52193;48.216;-1.698;2023-03-21T13:38:49;22.70;90.30
16863;DHT22;52193;48.216;-1.698;2023-03-21T13:41:18;23.20;90.00
16863;DHT22;52193;48.216;-1.698;2023-03-21T13:43:51;23.30;88.50
16863;DHT22;52193;48.216;-1.698;2023-03-21T13:49:25;23.40;88.70
16863;DHT22;52193;48.216;-1.698;2023-03-21T13:51:53;23.20;88.60
16863;DHT22;52193;48.216;-1.698;2023-03-21T13:54:23;22.70;88.50
16863;DHT22;52193;48.216;-1.698;2023-03-21T13:56:56;22.40;89.30
16863;DHT22;52193;48.216;-1.698;2023-03-21T13:59:38;22.10;89.90
16863;DHT22;52193;48.216;-1.698;2023-03-21T14:02:29;21.90;90.10
16863;DHT22;52193;48.216;-1.698;2023-03-21T14:05:00;21.70;90.30
16863;DHT22;52193;48.216;-1.698;2023-03-21T14:07:29;21.50;90.50
16863;DHT22;52193;48.216;-1.698;2023-03-21T14:09:59;21.40;90.70
16863;DHT22;52193;48.216;-1.698;2023-03-21T14:12:29;21.40;90.80
16863;DHT22;52193;48.216;-1.698;2023-03-21T14:15:02;21.40;91.10
16863;DHT22;52193;48.216;-1.698;2023-03-21T14:17:31;21.40;91.30
16863;DHT22;52193;48.216;-1.698;2023-03-21T14:20:05;22.00;91.10
16863;DHT22;52193;48.216;-1.698;2023-03-21T14:22:37;22.00;91.10
16863;DHT22;52193;48.216;-1.698;2023-03-21T14:25:09;21.90;91.00
16863;DHT22;52193;48.216;-1.698;2023-03-21T14:27:36;21.70;90.90
16863;DHT22;52193;48.216;-1.698;2023-03-21T14:30:05;21.30;90.90
16863;DHT22;52193;48.216;-1.698;2023-03-21T14:32:34;21.10;91.20
16863;DHT22;52193;48.216;-1.698;2023-03-21T14:35:02;21.10;91.40
16863;DHT22;52193;48.216;-1.698;2023-03-21T14:37:32;21.00;91.50
16863;DHT22;52193;48.216;-1.698;2023-03-21T14:40:00;21.00;91.50
16863;DHT22;52193;48.216;-1.698;2023-03-21T14:42:34;21.60;91.40
16863;DHT22;52193;48.216;-1.698;2023-03-21T14:45:13;21.60;91.40
16863;DHT22;52193;48.216;-1.698;2023-03-21T14:47:41;21.50;91.40
16863;DHT22;52193;48.216;-1.698;2023-03-21T14:50:21;21.50;91.10
16863;DHT22;52193;48.216;-1.698;2023-03-21T14:52:52;21.50;90.90
16863;DHT22;52193;48.216;-1.698;2023-03-21T14:55:19;22.60;90.60
16863;DHT22;52193;48.216;-1.698;2023-03-21T14:57:47;22.50;90.10
16863;DHT22;52193;48.216;-1.698;2023-03-21T15:00:22;22.30;90.20
16863;DHT22;52193;48.216;-1.698;2023-03-21T15:02:51;22.10;90.40
16863;DHT22;52193;48.216;-1.698;2023-03-21T15:05:23;22.00;90.60
16863;DHT22;52193;48.216;-1.698;2023-03-21T15:07:54;21.90;90.80
16863;DHT22;52193;48.216;-1.698;2023-03-21T15:10:21;22.10;90.80
16863;DHT22;52193;48.216;-1.698;2023-03-21T15:12:51;21.90;90.80
16863;DHT22;52193;48.216;-1.698;2023-03-21T15:15:18;21.70;90.70
16863;DHT22;52193;48.216;-1.698;2023-03-21T15:17:46;21.50;90.90
16863;DHT22;52193;48.216;-1.698;2023-03-21T15:20:14;21.30;90.90
16863;DHT22;52193;48.216;-1.698;2023-03-21T15:22:45;21.10;91.10
16863;DHT22;52193;48.216;-1.698;2023-03-21T15:25:17;20.90;91.10
16863;DHT22;52193;48.216;-1.698;2023-03-21T15:27:44;20.70;91.10
16863;DHT22;52193;48.216;-1.698;2023-03-21T15:30:22;20.70;91.20
16863;DHT22;52193;48.216;-1.698;2023-03-21T15:32:50;20.70;91.30
16863;DHT22;52193;48.216;-1.698;2023-03-21T15:35:20;20.60;91.30
16863;DHT22;52193;48.216;-1.698;2023-03-21T15:37:54;20.60;91.50
16863;DHT22;52193;48.216;-1.698;2023-03-21T15:40:23;20.60;91.40
16863;DHT22;52193;48.216;-1.698;2023-03-21T15:43:03;20.80;91.30
16863;DHT22;52193;48.216;-1.698;2023-03-21T15:45:31;21.10;91.00
16863;DHT22;52193;48.216;-1.698;2023-03-21T15:47:59;21.00;91.00
16863;DHT22;52193;48.216;-1.698;2023-03-21T15:50:33;21.20;91.20
16863;DHT22;52193;48.216;-1.698;2023-03-21T15:53:05;21.40;91.10